1961 NOT_NAMED (1961041S14119)


IBTrACS version v04r00. Visit IBTrACS website for data access.
Please direct all questions to the IBTrACS Q and A forum

Storm track - Intensity - Wind Radii - Intensity Data - Source Data - All data

Summary Information

Storm ID 1961041S14119
Start Feb 9 23Z
Landfall Feb 14 15Z
End Feb 14 23Z
ATCF IDs ,SH181961
Track status Best track data.

Storm track plot

Map of storm track

Intensity plots

No Intensity information for this storm


Radial wind information

No radial wind information for this storm


Position and Intensity Table

BASIN ISO_TIME_________ NATURE LAT LON
degrees north degrees east
SI 1961-02-09 23:00:00 NR -14.00 119.00
SI 1961-02-10 00:00:00 TS -14.10 118.99
SI 03:00:00 TS -14.40 118.89
SI 06:00:00 TS -14.71 118.80
SI 09:00:00 TS -15.02 118.74
SI 11:00:00 TS -15.21 118.71
SI 12:00:00 TS -15.30 118.69
SI 15:00:00 TS -15.52 118.67
SI 18:00:00 TS -15.72 118.57
SI 21:00:00 TS -15.96 118.32
SI 23:00:00 TS -16.12 118.07
SI 1961-02-11 00:00:00 TS -16.19 117.92
SI 03:00:00 TS -16.38 117.41
SI 06:00:00 TS -16.52 116.81
SI 09:00:00 TS -16.66 116.16
SI 11:00:00 TS -16.70 115.71
SI 12:00:00 TS -16.69 115.49
SI 15:00:00 TS -16.54 114.83
SI 18:00:00 TS -16.31 114.18
SI 21:00:00 TS -16.13 113.55
SI 23:00:00 TS -16.03 113.18
SI 1961-02-12 00:00:00 TS -15.99 113.02
SI 03:00:00 TS -15.87 112.62
SI 06:00:00 TS -15.80 112.32
SI 09:00:00 TS -15.78 112.05
SI 11:00:00 TS -15.80 111.89
SI 12:00:00 TS -15.80 111.80
SI 15:00:00 TS -15.77 111.50
SI 18:00:00 TS -15.83 111.20
SI 21:00:00 TS -16.07 110.94
SI 23:00:00 TS -16.32 110.79
SI 1961-02-13 00:00:00 TS -16.48 110.70
SI 03:00:00 TS -17.03 110.41
SI 06:00:00 TS -17.68 110.21
SI 09:00:00 TS -18.35 110.15
SI 11:00:00 TS -18.79 110.21
SI 12:00:00 TS -19.00 110.29
SI 15:00:00 TS -19.62 110.67
SI 18:00:00 TS -20.19 111.17
SI 21:00:00 TS -20.69 111.66
SI 23:00:00 TS -20.98 111.97
SI 1961-02-14 00:00:00 TS -21.11 112.11
SI 03:00:00 TS -21.48 112.47
SI 06:00:00 TS -21.82 112.81
SI 09:00:00 TS -22.15 113.14
SI 11:00:00 TS -22.39 113.38
SI 12:00:00 TS -22.51 113.51
SI 15:00:00 TS -22.89 113.93
SI 18:00:00 TS -23.30 114.37
SI 21:00:00 NR -23.72 114.80
SI 23:00:00 NR -24.00 115.10

Source Information

Agency Information
USA bsh181961.txt
TOKYO
CMA
HKO
NEWDELHI
REUNION
BOM
NADI
WELLINGTON
DS824 s_hem.dat:817:18S
TD9636 cons_worldwide_trop_cyclone_18710101-19891231-006:Line=5881
TD9635
NEUMANN
MLC

All available IBTrACS Data

SEASON BASIN SUBBASIN ISO_TIME_________ NATURE LAT LON DIST2LAND LANDFALL IFLAG USA AGENCY USA ATCF_ID USA LAT USA LON USA SSHS DS824 LAT DS824 LON DS824 STAGE TD9636 LAT TD9636 LON TD9636 STAGE STORM SPEED STORM DIR
Year degrees north degrees east km km degrees north degrees east 1 degrees north degrees east degrees north degrees east kts degrees
1961 SI WA 1961-02-09 23:00:00 NR -14.00 119.00 445 445 __________O___ -1 -14.00 119.00 7 6 192
1961 SI WA 1961-02-10 00:00:00 TS -14.10 118.99 455 455 O________OP___ jtwc_sh SH181961 -14.10 119.00 -1 -14.10 119.00 TC -14.11 118.97 7 6 195
1961 SI WA 03:00:00 TS -14.40 118.89 473 460 P________PP___ SH181961 -14.40 118.89 -1 -14.40 118.89 TC -14.42 118.89 7 6 196
1961 SI WA 06:00:00 TS -14.71 118.80 460 441 O________OP___ jtwc_sh SH181961 -14.70 118.80 -1 -14.70 118.80 TC -14.72 118.81 7 6 193
1961 SI WA 09:00:00 TS -15.02 118.74 450 439 P________PP___ SH181961 -15.01 118.74 -1 -15.01 118.74 TC -15.02 118.74 7 6 190
1961 SI WA 11:00:00 TS -15.21 118.71 439 434 P________PO___ SH181961 -15.21 118.71 -1 -15.21 118.71 TC -15.20 118.70 1 6 186
1961 SI WA 12:00:00 TS -15.30 118.69 434 423 O________OP___ jtwc_sh SH181961 -15.30 118.70 -1 -15.30 118.70 TC -15.29 118.68 1 5 189
1961 SI WA 15:00:00 TS -15.52 118.67 423 419 P________PP___ SH181961 -15.51 118.69 -1 -15.51 118.69 TC -15.54 118.62 1 4 195
1961 SI WA 18:00:00 TS -15.72 118.57 423 423 O________OP___ jtwc_sh SH181961 -15.70 118.60 -1 -15.70 118.60 TC -15.77 118.51 1 6 217
1961 SI WA 21:00:00 TS -15.96 118.32 440 440 P________PP___ SH181961 -15.96 118.33 -1 -15.96 118.33 TC -15.97 118.31 1 7 231
1961 SI WA 23:00:00 TS -16.12 118.07 456 451 P________PO___ SH181961 -16.13 118.06 -1 -16.13 118.06 TC -16.10 118.10 1 9 239
1961 SI WA 1961-02-11 00:00:00 TS -16.19 117.92 454 446 O________OP___ jtwc_sh SH181961 -16.20 117.90 -1 -16.20 117.90 TC -16.18 117.96 1 10 247
1961 SI WA 03:00:00 TS -16.38 117.41 451 448 P________PP___ SH181961 -16.37 117.39 -1 -16.37 117.39 TC -16.40 117.45 1 11 253
1961 SI WA 06:00:00 TS -16.52 116.81 457 439 O________OP___ jtwc_sh SH181961 -16.50 116.80 -1 -16.50 116.80 TC -16.57 116.83 1 12 257
1961 SI WA 09:00:00 TS -16.66 116.16 439 439 P________PP___ SH181961 -16.65 116.17 -1 -16.65 116.17 TC -16.68 116.15 1 13 260
1961 SI WA 11:00:00 TS -16.70 115.71 448 448 P________PO___ SH181961 -16.70 115.72 -1 -16.70 115.72 TC -16.70 115.70 1 13 267
1961 SI WA 12:00:00 TS -16.69 115.49 454 454 O________OP___ jtwc_sh SH181961 -16.70 115.50 -1 -16.70 115.50 TC -16.68 115.48 1 13 281
1961 SI WA 15:00:00 TS -16.54 114.83 500 500 P________PP___ SH181961 -16.54 114.84 -1 -16.54 114.84 TC -16.54 114.81 1 13 287
1961 SI WA 18:00:00 TS -16.31 114.18 548 548 O________OP___ jtwc_sh SH181961 -16.30 114.20 -1 -16.30 114.20 TC -16.34 114.15 1 13 288
1961 SI WA 21:00:00 TS -16.13 113.55 600 600 P________PP___ SH181961 -16.14 113.56 -1 -16.14 113.56 TC -16.12 113.55 1 12 286
1961 SI WA 23:00:00 TS -16.03 113.18 632 632 P________PO___ SH181961 -16.04 113.17 -1 -16.04 113.17 TC -16.00 113.20 1 11 286
1961 SI WA 1961-02-12 00:00:00 TS -15.99 113.02 643 643 O________OP___ jtwc_sh SH181961 -16.00 113.00 -1 -16.00 113.00 TC -15.96 113.05 1 8 286
1961 SI WA 03:00:00 TS -15.87 112.62 676 676 P________PP___ SH181961 -15.88 112.60 -1 -15.88 112.60 TC -15.85 112.66 1 7 286
1961 SI WA 06:00:00 TS -15.80 112.32 703 703 O________OP___ jtwc_sh SH181961 -15.80 112.30 -1 -15.80 112.30 TC -15.79 112.35 1 6 279
1961 SI WA 09:00:00 TS -15.78 112.05 711 711 P________PP___ SH181961 -15.78 112.04 -1 -15.78 112.04 TC -15.78 112.07 1 5 270
1961 SI WA 11:00:00 TS -15.80 111.89 717 717 P________PO___ SH181961 -15.79 111.88 -1 -15.79 111.88 TC -15.80 111.90 1 5 267
1961 SI WA 12:00:00 TS -15.80 111.80 720 720 O________OP___ jtwc_sh SH181961 -15.80 111.80 -1 -15.80 111.80 TC -15.79 111.80 1 6 275
1961 SI WA 15:00:00 TS -15.77 111.50 731 731 P________PP___ SH181961 -15.75 111.50 -1 -15.75 111.50 TC -15.80 111.49 1 6 267
1961 SI WA 18:00:00 TS -15.83 111.20 743 731 O________OP___ jtwc_sh SH181961 -15.80 111.20 -1 -15.80 111.20 TC -15.89 111.20 1 6 240
1961 SI WA 21:00:00 TS -16.07 110.94 726 710 P________PP___ SH181961 -16.06 110.94 -1 -16.06 110.94 TC -16.08 110.95 1 8 219
1961 SI WA 23:00:00 TS -16.32 110.79 710 696 P________PO___ SH181961 -16.34 110.78 -1 -16.34 110.78 TC -16.30 110.80 1 10 209
1961 SI WA 1961-02-13 00:00:00 TS -16.48 110.70 696 665 O________OP___ jtwc_sh SH181961 -16.50 110.70 -1 -16.50 110.70 TC -16.44 110.70 1 12 207
1961 SI WA 03:00:00 TS -17.03 110.41 665 623 P________PP___ SH181961 -17.06 110.41 -1 -17.06 110.41 TC -16.99 110.43 1 13 201
1961 SI WA 06:00:00 TS -17.68 110.21 615 572 O________OP___ jtwc_sh SH181961 -17.70 110.20 -1 -17.70 110.20 TC -17.65 110.23 1 13 191
1961 SI WA 09:00:00 TS -18.35 110.15 572 526 P________PP___ SH181961 -18.35 110.15 -1 -18.35 110.15 TC -18.35 110.15 1 13 179
1961 SI WA 11:00:00 TS -18.79 110.21 526 503 P________PO___ SH181961 -18.79 110.22 -1 -18.79 110.22 TC -18.80 110.20 1 13 168
1961 SI WA 12:00:00 TS -19.00 110.29 503 437 O________OP___ jtwc_sh SH181961 -19.00 110.30 -1 -19.00 110.30 TC -19.00 110.27 1 14 153
1961 SI WA 15:00:00 TS -19.62 110.67 428 355 P________PP___ SH181961 -19.63 110.69 -1 -19.63 110.69 TC -19.60 110.63 1 15 145
1961 SI WA 18:00:00 TS -20.19 111.17 347 282 O________OP___ jtwc_sh SH181961 -20.20 111.20 -1 -20.20 111.20 TC -20.17 111.12 1 14 139
1961 SI WA 21:00:00 TS -20.69 111.66 273 230 P________PP___ SH181961 -20.69 111.67 -1 -20.69 111.67 TC -20.69 111.66 1 13 136
1961 SI WA 23:00:00 TS -20.98 111.97 230 215 P________PO___ SH181961 -20.97 111.96 -1 -20.97 111.96 TC -21.00 112.00 2 12 136
1961 SI WA 1961-02-14 00:00:00 TS -21.11 112.11 215 159 O________OP___ jtwc_sh SH181961 -21.10 112.10 -1 -21.10 112.10 TC -21.14 112.13 2 10 137
1961 SI WA 03:00:00 TS -21.48 112.47 159 117 P________PP___ SH181961 -21.46 112.47 -1 -21.46 112.47 TC -21.52 112.48 2 10 137
1961 SI WA 06:00:00 TS -21.82 112.81 117 75 O________OP___ jtwc_sh SH181961 -21.80 112.80 -1 -21.80 112.80 TC -21.85 112.82 2 9 137
1961 SI WA 09:00:00 TS -22.15 113.14 68 30 P________PP___ SH181961 -22.14 113.14 -1 -22.14 113.14 TC -22.18 113.16 2 9 137
1961 SI WA 11:00:00 TS -22.39 113.38 30 15 P________PO___ SH181961 -22.38 113.37 -1 -22.38 113.37 TC -22.40 113.40 2 10 136
1961 SI WA 12:00:00 TS -22.51 113.51 15 0 O________OP___ jtwc_sh SH181961 -22.50 113.50 -1 -22.50 113.50 TC -22.52 113.53 2 11 135
1961 SI WA 15:00:00 TS -22.89 113.93 0 0 P________PP___ SH181961 -22.89 113.93 -1 -22.89 113.93 TC -22.90 113.92 2 11 135
1961 SI WA 18:00:00 TS -23.30 114.37 0 0 O________OP___ jtwc_sh SH181961 -23.30 114.40 -1 -23.30 114.40 TC -23.30 114.35 2 12 136
1961 SI WA 21:00:00 NR -23.72 114.80 0 0 __________P___ SH181961 -1 TC -23.72 114.80 2 12 136
1961 SI WA 23:00:00 NR -24.00 115.10 0 __________O___ SH181961 -1 TC -24.00 115.10 2 12 136